createdAt,value
2023-04-24T00:00:47.238Z,10.72
2023-04-24T00:04:50.407Z,10.56
2023-04-24T00:08:53.359Z,10.35
2023-04-24T00:12:57.733Z,10.17
2023-04-24T00:17:00.706Z,10.12
2023-04-24T00:21:03.941Z,10.18
2023-04-24T00:25:07.374Z,10.17
2023-04-24T00:29:11.626Z,10.03
2023-04-24T00:33:14.552Z,9.91
2023-04-24T00:37:17.543Z,9.89
2023-04-24T00:41:22.010Z,9.88
2023-04-24T00:45:26.243Z,9.86
2023-04-24T00:49:29.452Z,9.84
2023-04-24T00:53:32.360Z,9.76
2023-04-24T00:57:35.396Z,9.64
2023-04-24T01:01:43.154Z,9.56
2023-04-24T01:05:46.160Z,9.55
2023-04-24T01:09:52.280Z,9.50
2023-04-24T01:13:55.240Z,9.51
2023-04-24T01:17:59.518Z,9.50
2023-04-24T01:22:04.015Z,9.50
2023-04-24T01:26:08.665Z,9.49
2023-04-24T01:30:12.332Z,9.46
2023-04-24T01:34:15.561Z,9.46
2023-04-24T01:38:18.621Z,9.41
2023-04-24T01:42:23.841Z,9.42
2023-04-24T01:46:26.925Z,9.44
2023-04-24T01:50:29.850Z,9.43
2023-04-24T01:54:32.979Z,9.47
2023-04-24T01:58:37.316Z,9.46
2023-04-24T02:02:41.386Z,9.47
2023-04-24T02:06:44.332Z,9.49
2023-04-24T02:10:47.264Z,9.47
2023-04-24T02:14:51.790Z,9.51
2023-04-24T02:18:55.771Z,9.52
2023-04-24T02:22:58.647Z,9.51
2023-04-24T02:27:01.552Z,9.56
2023-04-24T02:31:06.377Z,9.58
2023-04-24T02:35:09.691Z,9.57
2023-04-24T02:39:12.580Z,9.57
2023-04-24T02:43:16.561Z,9.57
2023-04-24T02:47:20.816Z,9.60
2023-04-24T02:51:26.210Z,9.55
2023-04-24T02:55:29.114Z,9.55
2023-04-24T02:59:32.928Z,9.58
2023-04-24T03:03:37.742Z,9.54
2023-04-24T03:07:40.818Z,9.59
2023-04-24T03:11:43.816Z,9.56
2023-04-24T03:15:48.045Z,9.59
2023-04-24T03:19:52.569Z,9.58
2023-04-24T03:23:55.895Z,9.55
2023-04-24T03:27:59.204Z,9.58
2023-04-24T03:32:22.368Z,9.57
2023-04-24T03:36:27.101Z,9.55
2023-04-24T03:40:31.466Z,9.55
2023-04-24T03:44:35.692Z,9.52
2023-04-24T03:48:38.666Z,9.49
2023-04-24T03:52:44.098Z,9.49
2023-04-24T03:56:53.153Z,9.42
2023-04-24T04:00:58.020Z,9.40
2023-04-24T04:05:21.727Z,9.42
2023-04-24T04:09:26.489Z,9.38
2023-04-24T04:13:29.489Z,9.22
2023-04-24T04:17:32.794Z,9.15
2023-04-24T04:21:37.425Z,9.09
2023-04-24T04:25:55.981Z,9.07
2023-04-24T04:30:08.624Z,9.04
2023-04-24T04:34:21.190Z,9.11
2023-04-24T04:38:24.188Z,9.07
2023-04-24T04:42:47.080Z,8.89
2023-04-24T04:46:51.148Z,8.75
2023-04-24T04:51:09.243Z,8.61
2023-04-24T04:55:14.431Z,8.49
2023-04-24T04:59:43.245Z,8.46
2023-04-24T05:03:52.843Z,8.44
2023-04-24T05:07:57.121Z,8.42
2023-04-24T05:12:01.424Z,8.46
2023-04-24T05:16:08.165Z,8.52
2023-04-24T05:20:12.012Z,8.49
2023-04-24T05:24:15.518Z,8.48
2023-04-24T05:28:30.660Z,8.54
2023-04-24T05:32:43.493Z,8.61
2023-04-24T05:36:46.562Z,8.60
2023-04-24T05:40:49.535Z,8.57
2023-04-24T05:44:53.677Z,8.55
2023-04-24T05:48:58.492Z,8.54
2023-04-24T05:53:03.067Z,8.49
2023-04-24T05:57:09.982Z,8.43
2023-04-24T06:01:26.221Z,8.33
2023-04-24T06:05:40.837Z,8.28
2023-04-24T06:09:44.012Z,8.23
2023-04-24T06:13:47.617Z,8.21
2023-04-24T06:18:11.544Z,8.19
2023-04-24T06:22:16.931Z,8.23
2023-04-24T06:26:19.892Z,8.21
2023-04-24T06:30:22.875Z,8.27
2023-04-24T06:34:26.043Z,8.20
2023-04-24T06:38:30.853Z,8.20
2023-04-24T06:42:33.834Z,8.14
2023-04-24T06:46:37.201Z,8.08
2023-04-24T06:50:41.048Z,8.01
2023-04-24T06:54:45.322Z,8.01
2023-04-24T06:58:48.307Z,7.96
2023-04-24T07:02:51.197Z,7.71
2023-04-24T07:06:56.842Z,7.55
2023-04-24T07:11:01.573Z,7.30
2023-04-24T07:15:06.375Z,7.25
2023-04-24T07:19:09.360Z,7.28
2023-04-24T07:23:12.296Z,7.22
2023-04-24T07:27:16.597Z,7.25
2023-04-24T07:31:19.819Z,7.26
2023-04-24T07:35:22.860Z,7.30
2023-04-24T07:39:25.957Z,7.39
2023-04-24T07:43:30.205Z,7.54
2023-04-24T07:47:33.449Z,7.61
2023-04-24T07:51:39.392Z,7.66
2023-04-24T07:55:42.344Z,7.68
2023-04-24T07:59:47.058Z,7.68
2023-04-24T08:03:50.095Z,7.66
2023-04-24T08:07:53.716Z,7.65
2023-04-24T08:11:56.638Z,7.60
2023-04-24T08:16:01.002Z,7.58
2023-04-24T08:20:06.165Z,7.54
2023-04-24T08:24:09.638Z,7.57
2023-04-24T08:28:13.824Z,7.59
2023-04-24T08:32:18.874Z,7.60
2023-04-24T08:36:22.782Z,7.63
2023-04-24T08:40:30.108Z,7.67
2023-04-24T08:44:34.673Z,7.67
2023-04-24T08:48:39.315Z,7.73
2023-04-24T08:52:43.404Z,7.76
2023-04-24T08:56:47.048Z,7.77
2023-04-24T09:00:50.199Z,7.82
2023-04-24T09:04:54.582Z,7.85
2023-04-24T09:08:58.042Z,7.92
2023-04-24T09:13:02.913Z,7.93
2023-04-24T09:17:06.119Z,8.00
2023-04-24T09:21:11.498Z,8.02
2023-04-24T09:25:14.591Z,8.13
2023-04-24T09:29:18.038Z,8.17
2023-04-24T09:33:21.579Z,8.26
2023-04-24T09:37:31.313Z,8.45
2023-04-24T09:41:35.020Z,8.64
2023-04-24T09:45:38.272Z,8.71
2023-04-24T09:49:42.689Z,8.91
2023-04-24T09:53:49.158Z,9.10
2023-04-24T09:58:01.550Z,9.19
2023-04-24T10:02:05.353Z,9.16
2023-04-24T10:06:10.263Z,9.23
2023-04-24T10:10:15.009Z,8.94
2023-04-24T10:14:19.098Z,8.65
2023-04-24T10:18:23.462Z,8.59
2023-04-24T10:22:26.815Z,8.63
2023-04-24T10:26:31.375Z,8.78
2023-04-24T10:30:36.992Z,8.58
2023-04-24T10:34:40.071Z,8.73
2023-04-24T10:38:45.676Z,8.90
2023-04-24T10:42:55.263Z,9.12
2023-04-24T10:46:59.184Z,9.87
2023-04-24T10:51:02.342Z,10.65
2023-04-24T10:55:05.645Z,10.76
2023-04-24T10:59:12.397Z,10.56
2023-04-24T11:03:25.611Z,10.90
2023-04-24T11:07:28.634Z,11.48
2023-04-24T11:11:32.109Z,10.79
2023-04-24T11:15:36.502Z,10.55
2023-04-24T11:19:41.089Z,10.26
2023-04-24T11:23:43.985Z,10.22
2023-04-24T11:27:47.407Z,10.68
2023-04-24T11:31:52.677Z,11.01
2023-04-24T11:35:55.981Z,10.97
2023-04-24T11:40:00.647Z,10.97
2023-04-24T11:44:05.468Z,11.13
2023-04-24T11:48:09.759Z,11.33
2023-04-24T11:52:12.958Z,12.04
2023-04-24T11:56:19.992Z,12.72
2023-04-24T12:00:24.268Z,12.33
2023-04-24T12:04:28.973Z,11.74
2023-04-24T12:08:32.777Z,12.11
2023-04-24T12:12:35.637Z,12.62
2023-04-24T12:16:38.940Z,13.62
2023-04-24T12:20:43.374Z,13.36
2023-04-24T12:24:59.423Z,11.83
2023-04-24T12:29:03.884Z,11.43
2023-04-24T12:33:06.901Z,11.38
2023-04-24T12:37:13.495Z,11.59
2023-04-24T12:41:16.737Z,11.46
2023-04-24T12:45:20.743Z,11.93
2023-04-24T12:49:23.776Z,12.71
2023-04-24T12:53:29.689Z,12.37
2023-04-24T12:57:32.906Z,11.82
2023-04-24T13:01:35.810Z,12.21
2023-04-24T13:05:38.746Z,12.13
2023-04-24T13:09:43.436Z,12.09
2023-04-24T13:13:46.365Z,12.22
2023-04-24T13:17:49.261Z,12.13
2023-04-24T13:21:52.274Z,11.61
2023-04-24T13:25:58.667Z,11.47
2023-04-24T13:30:01.754Z,11.19
2023-04-24T13:34:05.317Z,11.41
2023-04-24T13:38:09.433Z,11.53
2023-04-24T13:42:15.322Z,11.27
2023-04-24T13:46:18.355Z,11.49
2023-04-24T13:50:21.544Z,11.21
2023-04-24T13:54:26.876Z,11.20
2023-04-24T13:58:31.485Z,11.50
2023-04-24T14:02:34.844Z,11.70
2023-04-24T14:06:37.784Z,11.88
2023-04-24T14:10:40.824Z,12.98
2023-04-24T14:14:45.089Z,13.63
2023-04-24T14:18:48.196Z,12.90
2023-04-24T14:22:51.271Z,12.73
2023-04-24T14:26:54.336Z,12.74
2023-04-24T14:30:58.972Z,12.73
2023-04-24T14:35:01.910Z,12.44
2023-04-24T14:39:07.864Z,12.99
2023-04-24T14:43:11.440Z,13.58
2023-04-24T14:47:15.816Z,14.52
2023-04-24T14:51:18.712Z,14.46
2023-04-24T14:55:21.723Z,13.58
2023-04-24T14:59:25.086Z,14.30
2023-04-24T15:03:30.764Z,14.00
2023-04-24T15:07:34.099Z,13.07
2023-04-24T15:11:37.224Z,12.52
2023-04-24T15:15:40.172Z,12.73
2023-04-24T15:19:44.361Z,12.49
2023-04-24T15:23:47.535Z,12.75
2023-04-24T15:27:50.781Z,13.80
2023-04-24T15:31:53.908Z,13.17
2023-04-24T15:35:58.266Z,12.70
2023-04-24T15:40:01.568Z,12.62
2023-04-24T15:44:04.806Z,12.70
2023-04-24T15:48:07.750Z,13.03
2023-04-24T15:52:12.288Z,12.92
2023-04-24T15:56:15.485Z,12.83
2023-04-24T16:00:19.317Z,13.50
2023-04-24T16:04:22.716Z,12.98
2023-04-24T16:08:26.950Z,12.29
2023-04-24T16:12:29.869Z,12.22
2023-04-24T16:16:33.058Z,12.11
2023-04-24T16:20:36.086Z,11.91
2023-04-24T16:24:40.399Z,12.19
2023-04-24T16:28:43.776Z,11.83
2023-04-24T16:32:46.879Z,12.20
2023-04-24T16:36:49.760Z,12.53
2023-04-24T16:40:54.135Z,12.48
2023-04-24T16:44:57.131Z,12.81
2023-04-24T16:49:00.264Z,12.31
2023-04-24T16:53:03.213Z,12.19
2023-04-24T16:57:08.536Z,12.01
2023-04-24T17:01:11.543Z,11.54
2023-04-24T17:05:14.521Z,11.81
2023-04-24T17:09:17.571Z,11.50
2023-04-24T17:13:21.918Z,11.21
2023-04-24T17:17:25.633Z,10.96
2023-04-24T17:21:28.524Z,10.98
2023-04-24T17:25:31.566Z,10.95
2023-04-24T17:29:35.796Z,11.28
2023-04-24T17:33:38.879Z,11.79
2023-04-24T17:37:41.884Z,11.87
2023-04-24T17:41:44.870Z,11.39
2023-04-24T17:45:50.340Z,10.72
2023-04-24T17:49:53.311Z,10.53
2023-04-24T17:53:56.304Z,10.66
2023-04-24T18:02:03.790Z,10.45
2023-04-24T18:06:07.362Z,10.26
2023-04-24T18:10:10.462Z,10.28
2023-04-24T18:14:13.490Z,10.17
2023-04-24T18:18:18.255Z,9.82
2023-04-24T18:22:21.230Z,9.79
2023-04-24T18:26:24.318Z,9.83
2023-04-24T18:30:31.253Z,9.83
2023-04-24T18:34:35.663Z,9.67
2023-04-24T18:38:38.598Z,9.55
2023-04-24T18:42:41.802Z,9.41
2023-04-24T18:46:44.874Z,9.24
2023-04-24T18:50:49.257Z,9.12
2023-04-24T18:54:52.219Z,9.01
2023-04-24T18:58:56.255Z,8.81
2023-04-24T19:02:59.594Z,8.63
2023-04-24T19:07:06.937Z,8.57
2023-04-24T19:11:11.784Z,8.53
2023-04-24T19:15:15.172Z,8.60
2023-04-24T19:19:18.296Z,8.57
2023-04-24T19:23:22.925Z,8.52
2023-04-24T19:27:26.203Z,8.49
2023-04-24T19:31:29.195Z,8.43
2023-04-24T19:35:32.321Z,8.36
2023-04-24T19:39:36.961Z,8.20
2023-04-24T19:43:40.044Z,8.14
2023-04-24T19:47:43.456Z,7.98
2023-04-24T19:51:46.476Z,7.95
2023-04-24T19:55:54.752Z,7.92
2023-04-24T19:59:57.756Z,7.86
2023-04-24T20:04:03.682Z,7.83
2023-04-24T20:08:06.740Z,7.84
2023-04-24T20:12:11.382Z,7.73
2023-04-24T20:16:14.429Z,7.63
2023-04-24T20:20:17.528Z,7.59
2023-04-24T20:24:20.583Z,7.57
2023-04-24T20:28:24.902Z,7.57
2023-04-24T20:32:27.959Z,7.47
2023-04-24T20:36:30.895Z,7.45
2023-04-24T20:40:35.512Z,7.43
2023-04-24T20:44:39.995Z,7.44
2023-04-24T20:48:43.238Z,7.39
2023-04-24T20:52:46.200Z,7.33
2023-04-24T20:56:49.342Z,7.22
2023-04-24T21:00:53.692Z,7.01
2023-04-24T21:04:56.903Z,6.92
2023-04-24T21:08:59.778Z,6.91
2023-04-24T21:13:02.753Z,6.83
2023-04-24T21:17:07.236Z,6.81
2023-04-24T21:21:10.206Z,6.79
2023-04-24T21:25:13.429Z,6.72
2023-04-24T21:29:16.521Z,6.57
2023-04-24T21:33:20.860Z,6.45
2023-04-24T21:37:23.791Z,6.34
2023-04-24T21:41:26.837Z,6.39
2023-04-24T21:45:30.564Z,6.52
2023-04-24T21:49:35.009Z,6.60
2023-04-24T21:53:37.919Z,6.60
2023-04-24T21:57:40.861Z,6.60
2023-04-24T22:01:44.522Z,6.56
2023-04-24T22:05:48.970Z,6.42
2023-04-24T22:09:51.917Z,6.47
2023-04-24T22:13:54.905Z,6.53
2023-04-24T22:17:57.912Z,6.56
2023-04-24T22:22:02.340Z,6.52
2023-04-24T22:26:06.043Z,6.44
2023-04-24T22:30:10.066Z,6.48
2023-04-24T22:34:13.047Z,6.59
2023-04-24T22:38:18.140Z,6.58
2023-04-24T22:42:21.142Z,6.60
2023-04-24T22:46:25.018Z,6.60
2023-04-24T22:50:29.175Z,6.59
2023-04-24T22:54:34.929Z,6.49
2023-04-24T22:58:37.899Z,6.45
2023-04-24T23:02:41.442Z,6.33
2023-04-24T23:06:44.548Z,6.34
2023-04-24T23:10:49.873Z,6.26
2023-04-24T23:14:52.934Z,6.20
2023-04-24T23:18:56.028Z,6.14
2023-04-24T23:22:59.424Z,5.99
2023-04-24T23:27:03.853Z,5.95
2023-04-24T23:31:06.801Z,5.83
2023-04-24T23:35:10.202Z,5.77
2023-04-24T23:39:13.547Z,5.69
2023-04-24T23:43:17.819Z,5.70
2023-04-24T23:47:20.875Z,5.67
2023-04-24T23:51:23.860Z,5.77
2023-04-24T23:55:26.932Z,5.82
2023-04-24T23:59:31.280Z,5.78
